Time;durP1;ratioP1;P1;durP2;ratioP2;P2;SDS_P1;SDS_P2;PMS_P1;PMS_P2;Temp;Humidity;BMP_temperature;BMP_pressure;BME280_temperature;BME280_humidity;BME280_pressure;Samples;Min_cycle;Max_cycle;Signal;HPM_P1;HPM_P2
2020/12/11 00:02:00;;;;;;;11.00;6.57;;;;;;;;;;4092917;27;20081;-89
2020/12/11 00:04:31;;;;;;;10.93;6.00;;;8.20;99.90;;;;;;4138333;27;20079;-89
2020/12/11 00:07:13;;;;;;;13.48;6.88;;;;;;;;;;4158441;27;20069;-88
2020/12/11 00:10:15;;;;;;;10.18;5.95;;;8.20;99.90;;;;;;4091584;27;20039;-89
2020/12/11 00:12:55;;;;;;;;;;;8.20;99.90;;;;;;4096758;27;20097;-89
2020/12/11 00:15:32;;;;;;;9.48;5.47;;;;;;;;;;4080186;27;20426;-88
2020/12/11 00:18:28;;;;;;;9.50;5.05;;;;;;;;;;4102739;27;20510;-89
2020/12/11 00:21:15;;;;;;;11.65;5.40;;;;;;;;;;4087409;35;20070;-88
2020/12/11 00:23:51;;;;;;;8.80;5.10;;;;;;;;;;4077735;27;20102;-88
2020/12/11 00:26:29;;;;;;;9.30;5.43;;;;;;;;;;4113471;27;20074;-88
2020/12/11 00:29:01;;;;;;;8.93;4.68;;;;;;;;;;4089707;27;20074;-89
2020/12/11 00:32:06;;;;;;;9.25;4.68;;;;;;;;;;4133603;27;20090;-89
2020/12/11 00:34:55;;;;;;;7.80;4.82;;;;;;;;;;4088479;35;20061;-89
2020/12/11 00:37:54;;;;;;;7.90;5.32;;;8.20;99.90;;;;;;4094306;27;20147;-90
2020/12/11 00:40:33;;;;;;;10.93;5.88;;;;;;;;;;4077595;35;20081;-89
2020/12/11 00:43:11;;;;;;;10.80;5.32;;;;;;;;;;4075939;35;20050;-88
2020/12/11 00:45:50;;;;;;;11.85;6.05;;;;;;;;;;4086768;27;20078;-90
2020/12/11 00:48:20;;;;;;;15.85;6.65;;;;;;;;;;4075649;35;20066;-88
2020/12/11 00:50:59;;;;;;;10.93;6.20;;;;;;;;;;4087185;35;20078;-89
2020/12/11 00:53:31;;;;;;;9.73;4.38;;;;;;;;;;4137781;27;20063;-89
2020/12/11 00:56:03;;;;;;;10.77;4.97;;;;;;;;;;4083730;35;20089;-89
2020/12/11 00:58:31;;;;;;;10.27;5.93;;;;;;;;;;4076741;27;20074;-89
2020/12/11 01:01:01;;;;;;;10.95;5.88;;;;;;;;;;4073935;35;20090;-88
2020/12/11 01:03:33;;;;;;;13.02;4.97;;;;;;;;;;4074176;35;20077;-89
2020/12/11 01:06:05;;;;;;;10.25;4.72;;;;;;;;;;4105659;27;20543;-88
2020/12/11 01:08:47;;;;;;;11.00;5.30;;;8.40;99.90;;;;;;4091927;28;20081;-90
2020/12/11 01:11:31;;;;;;;12.27;5.07;;;;;;;;;;4075742;28;20053;-88
2020/12/11 01:14:05;;;;;;;11.20;5.75;;;;;;;;;;4108007;27;20062;-89
2020/12/11 01:17:36;;;;;;;9.68;4.10;;;8.50;99.90;;;;;;4074292;35;20070;-90
2020/12/11 01:20:07;;;;;;;12.48;3.60;;;;;;;;;;4115566;27;20062;-89
2020/12/11 01:22:36;;;;;;;17.65;3.92;;;;;;;;;;4077286;27;20073;-88
2020/12/11 01:25:15;;;;;;;7.28;4.05;;;;;;;;;;4109398;27;20070;-89
2020/12/11 01:27:44;;;;;;;6.82;2.75;;;;;;;;;;4082701;27;20062;-88
2020/12/11 01:30:16;;;;;;;4.45;3.22;;;;;;;;;;4160680;27;20057;-87
2020/12/11 01:32:49;;;;;;;7.50;3.47;;;;;;;;;;4086146;35;20121;-88
2020/12/11 01:35:31;;;;;;;7.15;3.45;;;8.70;99.90;;;;;;4111962;27;20030;-89
2020/12/11 01:42:18;;;;;;;4.65;2.05;;;;;;;;;;4076146;35;20077;-90
2020/12/11 01:44:52;;;;;;;8.98;2.00;;;;;;;;;;4092129;27;20092;-89
2020/12/11 01:47:31;;;;;;;3.15;1.45;;;;;;;;;;4093144;27;20092;-88
2020/12/11 01:50:07;;;;;;;1.48;1.33;;;;;;;;;;4069784;27;20089;-88
2020/12/11 01:52:42;;;;;;;7.35;1.70;;;;;;;;;;4077775;27;20090;-88
2020/12/11 01:55:11;;;;;;;2.05;1.83;;;;;;;;;;4111311;27;20448;-88
2020/12/11 01:57:43;;;;;;;3.47;1.70;;;;;;;;;;4126788;27;20073;-89
2020/12/11 02:00:16;;;;;;;2.28;1.42;;;;;;;;;;4115733;27;20065;-88
2020/12/11 02:02:50;;;;;;;3.33;1.70;;;9.40;99.90;;;;;;4178522;27;20085;-88
2020/12/11 02:05:19;;;;;;;8.63;2.25;;;;;;;;;;4084678;27;20090;-88
2020/12/11 02:07:57;;;;;;;4.60;1.50;;;8.50;99.90;;;;;;4087496;27;20070;-88
2020/12/11 02:10:31;;;;;;;7.47;2.08;;;;;;;;;;4071971;35;20058;-89
2020/12/11 02:13:09;;;;;;;7.80;2.08;;;;;;;;;;4075369;27;20061;-87
2020/12/11 02:15:41;;;;;;;9.43;3.80;;;;;;;;;;4091819;35;20042;-87
2020/12/11 02:18:40;;;;;;;9.40;2.00;;;8.90;99.90;;;;;;4091091;27;20081;-87
2020/12/11 02:21:10;;;;;;;7.18;3.67;;;;;;;;;;4102622;27;20077;-87
2020/12/11 02:23:39;;;;;;;3.20;1.80;;;;;;;;;;4126154;27;20062;-87
2020/12/11 02:26:08;;;;;;;6.50;1.60;;;;;;;;;;4111054;27;20050;-87
2020/12/11 02:29:04;;;;;;;4.57;1.88;;;;;;;;;;4130590;27;20054;-87
2020/12/11 02:31:33;;;;;;;3.15;1.88;;;;;;;;;;4091962;27;20073;-87
2020/12/11 02:34:06;;;;;;;11.45;2.53;;;;;;;;;;4081080;27;20086;-87
2020/12/11 02:36:33;;;;;;;4.75;2.50;;;;;;;;;;4123389;27;20082;-87
2020/12/11 02:39:14;;;;;;;6.45;3.03;;;;;;;;;;4185611;27;20078;-87
2020/12/11 02:41:47;;;;;;;4.55;1.35;;;8.90;99.90;;;;;;4059300;35;20063;-87
2020/12/11 02:44:16;;;;;;;9.88;2.10;;;;;;;;;;4059502;35;20090;-87
2020/12/11 02:46:45;;;;;;;4.63;1.48;;;;;;;;;;4048213;35;20071;-86
2020/12/11 02:49:17;;;;;;;3.80;1.60;;;;;;;;;;4081044;27;20094;-87
2020/12/11 02:51:47;;;;;;;2.17;1.98;;;;;;;;;;4057451;35;20082;-87
2020/12/11 02:54:17;;;;;;;3.13;2.50;;;;;;;;;;4046864;35;20101;-89
2020/12/11 02:56:47;;;;;;;7.38;1.75;;;;;;;;;;4058375;35;20162;-89
2020/12/11 02:59:27;;;;;;;2.35;1.83;;;;;;;;;;4085093;27;20074;-88
2020/12/11 03:01:58;;;;;;;6.97;3.30;;;;;;;;;;4062859;27;20093;-88
2020/12/11 03:04:27;;;;;;;12.38;1.95;;;;;;;;;;4117818;27;20101;-87
2020/12/11 03:07:01;;;;;;;5.60;1.88;;;;;;;;;;4037230;35;20081;-88
2020/12/11 03:09:32;;;;;;;4.97;1.70;;;;;;;;;;4069642;27;20094;-88
2020/12/11 03:12:02;;;;;;;3.70;1.90;;;;;;;;;;4061980;28;20162;-88
2020/12/11 03:14:32;;;;;;;8.40;1.80;;;;;;;;;;4029221;28;20043;-87
2020/12/11 03:17:07;;;;;;;8.23;2.58;;;8.90;99.90;;;;;;4109123;27;20162;-88
2020/12/11 03:19:35;;;;;;;14.43;3.42;;;;;;;;;;4050131;28;20089;-88
2020/12/11 03:22:05;;;;;;;3.80;1.77;;;;;;;;;;4069827;27;20046;-89
2020/12/11 03:24:34;;;;;;;2.05;1.40;;;;;;;;;;4055582;28;20081;-88
2020/12/11 03:27:03;;;;;;;5.95;2.03;;;;;;;;;;4079595;27;20073;-87
2020/12/11 03:29:32;;;;;;;11.68;2.50;;;;;;;;;;4075115;27;20077;-88
2020/12/11 03:32:20;;;;;;;9.70;1.85;;;;;;;;;;4090825;27;20078;-88
2020/12/11 03:34:54;;;;;;;;;;;9.00;99.90;;;;;;4072336;35;20073;-89
2020/12/11 03:37:30;;;;;;;4.05;1.83;;;;;;;;;;4087904;27;19974;-88
2020/12/11 03:40:12;;;;;;;4.25;1.83;;;;;;;;;;4062197;28;20527;-89
2020/12/11 03:42:45;;;;;;;1.63;1.42;;;;;;;;;;4079410;35;20070;-87
2020/12/11 03:45:13;;;;;;;5.13;2.13;;;;;;;;;;4088525;27;20066;-88
2020/12/11 03:47:58;;;;;;;6.20;2.17;;;;;;;;;;4071018;35;20082;-89
2020/12/11 03:50:34;;;;;;;4.57;2.05;;;;;;;;;;4082191;35;20069;-89
2020/12/11 03:53:02;;;;;;;8.15;1.80;;;;;;;;;;4066718;27;20086;-87
2020/12/11 03:55:33;;;;;;;11.15;2.47;;;;;;;;;;4080973;27;20082;-89
2020/12/11 03:58:02;;;;;;;10.57;2.40;;;;;;;;;;4090408;27;20132;-88
2020/12/11 04:00:37;;;;;;;16.40;2.28;;;;;;;;;;4085140;27;20062;-87
2020/12/11 04:03:08;;;;;;;7.38;2.85;;;;;;;;;;4076713;27;20058;-89
2020/12/11 04:05:44;;;;;;;9.98;2.50;;;;;;;;;;4077059;27;20077;-89
2020/12/11 04:08:30;;;;;;;3.05;1.60;;;;;;;;;;4076120;35;20061;-87
2020/12/11 04:11:04;;;;;;;9.45;2.45;;;9.30;99.90;;;;;;4073858;27;20082;-89
2020/12/11 04:13:33;;;;;;;12.82;2.95;;;;;;;;;;4092785;27;20062;-88
2020/12/11 04:16:05;;;;;;;4.35;2.08;;;;;;;;;;4076737;27;20441;-87
2020/12/11 04:18:35;;;;;;;6.28;1.98;;;;;;;;;;4091975;27;20113;-87
2020/12/11 04:21:05;;;;;;;9.38;3.03;;;;;;;;;;4078443;27;20143;-88
2020/12/11 04:23:36;;;;;;;12.38;2.63;;;;;;;;;;4126371;27;20086;-89
2020/12/11 04:26:08;;;;;;;5.50;3.08;;;;;;;;;;4131694;27;20058;-88
2020/12/11 04:30:12;;;;;;;9.27;2.95;;;9.50;99.90;;;;;;4092422;27;20042;-88
2020/12/11 04:33:10;;;;;;;5.28;2.15;;;;;;;;;;4092487;35;20086;-88
2020/12/11 04:35:44;;;;;;;10.10;2.87;;;;;;;;;;4089897;27;20085;-88
2020/12/11 04:38:18;;;;;;;13.43;3.08;;;;;;;;;;4084387;27;20054;-87
2020/12/11 04:40:46;;;;;;;6.93;2.63;;;;;;;;;;4143585;27;20077;-89
2020/12/11 04:43:15;;;;;;;12.48;3.28;;;;;;;;;;4095664;27;20069;-88
2020/12/11 04:45:49;;;;;;;8.55;3.05;;;9.40;99.90;;;;;;4063757;35;20077;-87
2020/12/11 04:49:11;;;;;;;10.40;2.80;;;9.50;99.90;;;;;;4095961;27;20057;-88
2020/12/11 04:51:48;;;;;;;13.43;4.03;;;;;;;;;;4069624;28;20074;-88
2020/12/11 04:54:20;;;;;;;4.93;2.22;;;9.50;99.90;;;;;;4074024;35;20086;-88
2020/12/11 04:56:52;;;;;;;16.63;3.97;;;;;;;;;;4086808;27;20068;-88
2020/12/11 04:59:27;;;;;;;9.00;2.75;;;;;;;;;;4096500;27;20074;-88
2020/12/11 05:02:04;;;;;;;9.02;3.95;;;9.50;99.90;;;;;;4090918;27;20545;-89
2020/12/11 05:04:36;;;;;;;7.25;2.70;;;;;;;;;;4074180;27;20057;-88
2020/12/11 05:07:20;;;;;;;7.93;2.13;;;;;;;;;;4087918;27;20628;-87
2020/12/11 05:09:58;;;;;;;4.97;1.98;;;;;;;;;;4089961;27;20068;-89
2020/12/11 05:12:29;;;;;;;8.90;3.03;;;;;;;;;;4159676;27;20086;-88
2020/12/11 05:15:03;;;;;;;9.65;2.45;;;9.60;99.90;;;;;;4081224;27;20085;-89
2020/12/11 05:17:58;;;;;;;5.82;1.90;;;9.50;99.90;;;;;;4070906;27;20078;-88
2020/12/11 05:20:29;;;;;;;8.40;2.05;;;;;;;;;;4090796;27;20066;-89
2020/12/11 05:23:08;;;;;;;4.63;1.95;;;;;;;;;;4103931;28;20074;-88
2020/12/11 05:25:38;;;;;;;4.25;2.10;;;;;;;;;;4074913;27;20070;-88
2020/12/11 05:28:10;;;;;;;7.10;1.88;;;;;;;;;;4105053;27;20082;-88
2020/12/11 05:30:40;;;;;;;4.57;2.08;;;;;;;;;;4073229;35;20086;-88
2020/12/11 05:33:09;;;;;;;9.63;1.70;;;;;;;;;;4093699;27;20082;-89
2020/12/11 05:35:40;;;;;;;7.45;2.38;;;;;;;;;;4073548;35;20050;-88
2020/12/11 05:38:12;;;;;;;4.18;1.77;;;;;;;;;;4096629;27;20054;-89
2020/12/11 05:40:43;;;;;;;7.80;2.50;;;;;;;;;;4078157;35;20078;-89
2020/12/11 05:43:21;;;;;;;5.63;3.13;;;;;;;;;;4115631;27;20074;-89
2020/12/11 05:46:00;;;;;;;9.23;1.83;;;;;;;;;;4109760;27;20279;-88
2020/12/11 05:48:39;;;;;;;5.28;1.83;;;;;;;;;;4073780;27;20109;-89
2020/12/11 05:51:17;;;;;;;3.25;2.13;;;;;;;;;;4102807;27;20377;-89
2020/12/11 05:53:46;;;;;;;9.68;2.47;;;;;;;;;;4100565;27;20093;-89
2020/12/11 05:56:15;;;;;;;5.75;1.58;;;;;;;;;;4084353;35;20444;-88
2020/12/11 05:58:46;;;;;;;6.82;1.73;;;9.70;99.90;;;;;;4111683;27;20645;-88
2020/12/11 06:01:23;;;;;;;4.82;1.63;;;;;;;;;;4085560;27;20089;-89
2020/12/11 06:03:57;;;;;;;4.22;1.38;;;9.80;99.90;;;;;;4086929;35;20065;-90
2020/12/11 06:06:34;;;;;;;2.78;1.45;;;9.70;99.90;;;;;;4112186;27;20066;-88
2020/12/11 06:09:02;;;;;;;2.42;1.45;;;;;;;;;;4117079;27;20084;-89
2020/12/11 06:11:47;;;;;;;3.13;1.80;;;9.70;99.90;;;;;;4089305;35;20116;-89
2020/12/11 06:14:22;;;;;;;9.32;1.90;;;;;;;;;;4088573;35;20093;-90
2020/12/11 06:16:55;;;;;;;2.58;1.33;;;;;;;;;;4105770;27;20060;-91
2020/12/11 06:19:29;;;;;;;4.40;2.40;;;;;;;;;;4069661;27;20070;-89
2020/12/11 06:22:07;;;;;;;7.28;2.13;;;9.70;99.90;;;;;;4098971;27;20081;-88
2020/12/11 06:24:37;;;;;;;3.67;2.33;;;;;;;;;;4073350;27;20069;-88
2020/12/11 06:27:07;;;;;;;2.65;1.20;;;;;;;;;;4085346;35;20066;-88
2020/12/11 06:29:42;;;;;;;1.92;1.25;;;;;;;;;;4116135;27;20088;-87
2020/12/11 06:32:12;;;;;;;6.57;3.53;;;;;;;;;;4088973;27;20093;-88
2020/12/11 06:34:43;;;;;;;4.60;1.83;;;;;;;;;;4102465;27;20082;-89
2020/12/11 06:37:13;;;;;;;4.72;1.80;;;;;;;;;;4088833;27;20085;-86
2020/12/11 06:39:45;;;;;;;6.47;1.90;;;9.60;99.90;;;;;;4089782;27;20066;-88
2020/12/11 06:42:35;;;;;;;4.57;1.65;;;9.70;99.90;;;;;;4089414;27;20101;-87
2020/12/11 06:45:15;;;;;;;3.20;2.17;;;;;;;;;;4063283;35;20078;-87
2020/12/11 06:47:48;;;;;;;3.38;1.98;;;;;;;;;;4081970;27;20121;-88
2020/12/11 06:50:20;;;;;;;5.63;2.80;;;;;;;;;;4070379;27;20070;-88
2020/12/11 06:52:56;;;;;;;6.88;2.03;;;;;;;;;;4072319;27;20074;-88
2020/12/11 06:55:50;;;;;;;8.65;2.33;;;9.70;99.90;;;;;;4081285;27;20082;-89
2020/12/11 06:58:22;;;;;;;3.90;1.90;;;9.50;99.90;;;;;;4071421;27;20604;-89
2020/12/11 07:00:54;;;;;;;6.20;3.08;;;9.50;99.90;;;;;;4077264;35;20082;-87
2020/12/11 07:03:31;;;;;;;4.50;1.90;;;9.50;99.90;;;;;;4068689;35;20082;-88
2020/12/11 07:06:15;;;;;;;6.32;1.85;;;;;;;;;;4079079;27;20089;-89
2020/12/11 07:08:47;;;;;;;4.20;1.52;;;;;;;;;;4114407;27;20063;-88
2020/12/11 07:11:21;;;;;;;8.07;2.80;;;;;;;;;;4098873;27;20082;-89
2020/12/11 07:13:50;;;;;;;3.70;2.03;;;9.60;99.90;;;;;;4083454;27;20086;-88
2020/12/11 07:16:23;;;;;;;5.00;2.15;;;9.50;99.90;;;;;;4081762;27;20098;-89
2020/12/11 07:19:08;;;;;;;7.30;2.53;;;;;;;;;;4071737;35;20086;-89
2020/12/11 07:21:42;;;;;;;11.15;2.40;;;;;;;;;;4075477;27;20078;-89
2020/12/11 07:24:20;;;;;;;9.23;3.25;;;;;;;;;;4080364;35;20050;-91
2020/12/11 07:27:10;;;;;;;7.43;2.15;;;;;;;;;;4083787;27;20074;-89
2020/12/11 07:29:51;;;;;;;5.15;2.15;;;;;;;;;;4081801;27;20066;-87
2020/12/11 07:32:37;;;;;;;3.97;2.45;;;;;;;;;;4082972;35;20071;-90
2020/12/11 07:35:32;;;;;;;5.45;2.17;;;;;;;;;;4058264;35;20066;-89
2020/12/11 07:38:28;;;;;;;4.82;2.30;;;9.80;99.90;;;;;;4089304;35;20066;-88
2020/12/11 07:41:07;;;;;;;20.88;3.40;;;;;;;;;;4084776;35;20058;-89
2020/12/11 07:43:57;;;;;;;5.03;2.72;;;;;;;;;;4089979;27;20063;-91
2020/12/11 07:47:11;;;;;;;5.13;2.78;;;;;;;;;;4100811;27;20057;-89
2020/12/11 07:50:14;;;;;;;7.45;2.78;;;;;;;;;;4081850;35;20081;-89
2020/12/11 07:53:08;;;;;;;5.35;2.65;;;;;;;;;;4107335;27;20062;-88
2020/12/11 07:55:42;;;;;;;6.75;3.45;;;;;;;;;;4090286;27;20070;-89
2020/12/11 07:58:15;;;;;;;8.45;2.70;;;;;;;;;;4101030;27;20082;-88
2020/12/11 08:00:54;;;;;;;7.10;2.90;;;;;;;;;;4097654;27;20061;-89
2020/12/11 08:03:28;;;;;;;5.72;3.13;;;;;;;;;;4099050;27;20086;-86
2020/12/11 08:06:27;;;;;;;8.48;3.88;;;;;;;;;;4091979;35;20066;-87
2020/12/11 08:09:28;;;;;;;12.63;3.55;;;9.60;99.90;;;;;;4126958;27;20085;-89
2020/12/11 08:12:11;;;;;;;7.07;3.97;;;;;;;;;;4122044;27;20046;-89
2020/12/11 08:14:47;;;;;;;9.25;4.63;;;;;;;;;;4079509;27;20066;-89
2020/12/11 08:17:41;;;;;;;6.70;3.33;;;;;;;;;;4086456;35;20066;-89
2020/12/11 08:20:24;;;;;;;7.82;4.10;;;;;;;;;;4080317;27;20073;-90
2020/12/11 08:23:19;;;;;;;14.15;4.22;;;9.60;99.90;;;;;;4077815;27;20109;-88
2020/12/11 08:26:07;;;;;;;17.05;5.18;;;;;;;;;;4086603;27;20614;-88
2020/12/11 08:28:45;;;;;;;11.38;6.00;;;;;;;;;;4075138;35;20039;-92
2020/12/11 08:32:03;;;;;;;12.55;4.85;;;;;;;;;;4088432;35;20066;-89
2020/12/11 08:34:48;;;;;;;7.07;4.07;;;;;;;;;;4087009;27;20066;-87
2020/12/11 08:37:24;;;;;;;12.40;5.75;;;9.40;99.90;;;;;;4086178;35;20070;-86
2020/12/11 08:40:06;;;;;;;12.20;6.78;;;9.30;99.90;;;;;;4096371;27;20061;-85
2020/12/11 08:43:27;;;;;;;;;;;9.40;99.90;;;;;;4084798;27;20054;-87
2020/12/11 08:51:41;;;;;;;19.85;6.47;;;;;;;;;;4098185;27;20062;-86
2020/12/11 08:54:26;;;;;;;11.27;4.75;;;;;;;;;;4094744;27;20050;-85
2020/12/11 08:57:00;;;;;;;12.90;6.50;;;;;;;;;;4103369;27;20066;-86
2020/12/11 08:59:34;;;;;;;13.02;6.20;;;;;;;;;;4085994;35;20062;-87
2020/12/11 09:02:06;;;;;;;17.80;8.32;;;9.20;99.90;;;;;;4101306;27;20100;-87
2020/12/11 09:04:43;;;;;;;17.67;6.68;;;;;;;;;;4091267;27;20136;-86
2020/12/11 09:07:25;;;;;;;15.60;7.38;;;;;;;;;;4099734;27;20140;-88
2020/12/11 09:09:59;;;;;;;14.95;6.38;;;;;;;;;;4082751;27;20320;-88
2020/12/11 09:12:28;;;;;;;;;;;9.20;99.90;;;;;;4072354;35;20062;-87
2020/12/11 09:15:02;;;;;;;15.65;5.72;;;;;;;;;;4080999;35;19998;-89
2020/12/11 09:17:34;;;;;;;15.48;7.40;;;;;;;;;;4071046;35;20055;-84
2020/12/11 09:20:01;;;;;;;18.35;7.43;;;;;;;;;;4086472;27;20094;-88
2020/12/11 09:22:30;;;;;;;16.48;7.15;;;;;;;;;;4073552;35;20062;-87
2020/12/11 09:25:03;;;;;;;21.05;7.43;;;;;;;;;;4109592;27;20433;-87
2020/12/11 09:27:32;;;;;;;18.50;7.95;;;;;;;;;;4085856;35;20549;-87
2020/12/11 09:30:15;;;;;;;17.35;8.02;;;;;;;;;;4104070;27;20078;-86
2020/12/11 09:35:25;;;;;;;13.15;6.28;;;;;;;;;;4099375;27;20139;-87
2020/12/11 09:37:55;;;;;;;17.55;7.40;;;9.90;99.90;;;;;;4117953;27;20035;-87
2020/12/11 09:40:39;;;;;;;18.60;7.30;;;9.40;99.90;;;;;;4088391;35;20076;-88
2020/12/11 09:46:41;;;;;;;18.73;7.68;;;;;;;;;;4043194;28;20078;-87
2020/12/11 09:49:15;;;;;;;23.00;7.82;;;;;;;;;;4025702;28;20060;-86
2020/12/11 09:52:21;;;;;;;21.48;7.60;;;;;;;;;;4045650;28;20079;-88
2020/12/11 09:54:41;;;;;;;18.88;7.20;;;;;;;;;;4023945;35;20102;-88
2020/12/11 09:57:13;;;;;;;23.95;6.32;;;;;;;;;;4087135;35;20094;-86
2020/12/11 09:59:51;;;;;;;21.98;8.75;;;;;;;;;;4079062;27;20061;-87
2020/12/11 10:02:56;;;;;;;18.83;7.47;;;;;;;;;;4075037;35;20077;-86
2020/12/11 10:05:28;;;;;;;18.98;9.07;;;;;;;;;;4072276;27;20081;-86
2020/12/11 10:07:59;;;;;;;22.95;9.80;;;;;;;;;;4084039;27;20561;-87
2020/12/11 10:10:30;;;;;;;18.90;7.28;;;;;;;;;;4084362;27;20081;-86
2020/12/11 10:12:59;;;;;;;18.57;6.87;;;;;;;;;;4090317;27;20042;-85
2020/12/11 10:15:36;;;;;;;25.35;7.65;;;;;;;;;;4094571;27;20089;-88
2020/12/11 10:18:51;;;;;;;19.40;6.30;;;10.40;99.90;;;;;;4083407;35;20070;-86
2020/12/11 10:21:21;;;;;;;16.75;6.97;;;;;;;;;;4082163;27;20085;-88
2020/12/11 10:23:55;;;;;;;19.85;7.90;;;;;;;;;;4102662;27;20168;-86
2020/12/11 10:26:23;;;;;;;18.38;7.70;;;;;;;;;;4079852;35;20085;-86
2020/12/11 10:29:04;;;;;;;25.70;8.05;;;;;;;;;;4079790;27;20061;-88
2020/12/11 10:31:41;;;;;;;22.27;6.18;;;;;;;;;;4089227;35;20105;-86
2020/12/11 10:34:16;;;;;;;29.05;6.47;;;10.60;99.90;;;;;;4098931;35;20081;-87
2020/12/11 10:36:47;;;;;;;19.98;7.47;;;;;;;;;;4070453;35;20490;-87
2020/12/11 10:39:17;;;;;;;20.27;8.88;;;;;;;;;;4107937;27;20050;-87
2020/12/11 10:41:49;;;;;;;;;;;10.90;99.90;;;;;;4091534;35;20053;-87
2020/12/11 10:44:30;;;;;;;19.83;8.73;;;;;;;;;;4087786;27;19955;-87
2020/12/11 10:47:01;;;;;;;24.58;7.93;;;;;;;;;;4083634;27;20042;-88
2020/12/11 10:49:35;;;;;;;20.70;8.57;;;;;;;;;;4093893;35;20034;-88
2020/12/11 10:52:04;;;;;;;28.27;8.27;;;;;;;;;;4091468;35;20043;-87
2020/12/11 10:54:41;;;;;;;25.35;8.75;;;;;;;;;;4079941;27;20194;-87
2020/12/11 10:57:18;;;;;;;23.08;9.52;;;;;;;;;;4090550;27;20073;-89
2020/12/11 10:59:53;;;;;;;26.42;8.32;;;;;;;;;;4100614;35;20085;-88
2020/12/11 11:02:23;;;;;;;61.25;11.55;;;;;;;;;;4092177;35;20061;-87
2020/12/11 11:04:55;;;;;;;27.20;9.00;;;;;;;;;;4061166;27;20060;-87
2020/12/11 11:07:28;;;;;;;33.10;9.05;;;;;;;;;;4111308;27;20074;-88
2020/12/11 11:10:49;;;;;;;30.85;8.93;;;;;;;;;;4111924;27;20070;-88
2020/12/11 11:13:37;;;;;;;24.40;8.43;;;;;;;;;;4087724;35;20090;-86
2020/12/11 11:16:10;;;;;;;21.55;7.93;;;;;;;;;;4085716;35;20063;-85
2020/12/11 11:18:54;;;;;;;22.75;7.60;;;;;;;;;;4092448;27;20062;-90
2020/12/11 11:21:49;;;;;;;25.42;8.73;;;;;;;;;;4073082;28;20073;-87
2020/12/11 11:27:22;;;;;;;32.83;9.43;;;;;;;;;;4101079;27;20086;-88
2020/12/11 11:29:52;;;;;;;26.63;8.30;;;;;;;;;;4076633;27;20097;-87
2020/12/11 11:32:26;;;;;;;39.00;10.38;;;;;;;;;;4093615;35;20082;-87
2020/12/11 11:34:58;;;;;;;32.78;7.50;;;;;;;;;;4076201;35;20062;-88
2020/12/11 11:37:41;;;;;;;20.88;7.60;;;;;;;;;;4089915;27;20452;-87
2020/12/11 11:40:40;;;;;;;23.80;7.32;;;11.30;99.90;;;;;;4079830;35;20074;-89
2020/12/11 11:43:21;;;;;;;33.22;9.80;;;;;;;;;;4100982;35;20070;-90
2020/12/11 11:45:54;;;;;;;23.05;7.13;;;;;;;;;;4063619;35;20069;-86
2020/12/11 11:48:38;;;;;;;30.57;6.30;;;;;;;;;;4064105;35;20082;-86
2020/12/11 11:51:19;;;;;;;25.83;8.32;;;;;;;;;;4058722;35;20074;-86
2020/12/11 11:53:47;;;;;;;22.05;7.18;;;;;;;;;;4068350;27;20077;-85
2020/12/11 11:56:23;;;;;;;21.20;6.13;;;;;;;;;;4081593;27;20082;-84
2020/12/11 11:58:52;;;;;;;25.80;6.28;;;;;;;;;;4082846;27;20623;-87
2020/12/11 12:01:26;;;;;;;24.25;7.22;;;11.50;99.90;;;;;;4055729;35;20066;-84
2020/12/11 12:03:56;;;;;;;33.75;7.82;;;;;;;;;;4141097;27;20085;-85
2020/12/11 12:06:25;;;;;;;28.05;7.90;;;;;;;;;;4086157;27;20097;-84
2020/12/11 12:09:32;;;;;;;26.05;7.10;;;11.60;99.90;;;;;;4081922;35;20578;-84
2020/12/11 12:12:06;;;;;;;24.52;7.32;;;;;;;;;;4059365;35;20129;-87
2020/12/11 12:14:36;;;;;;;15.90;5.10;;;11.60;99.90;;;;;;4085077;27;20082;-85
2020/12/11 12:17:08;;;;;;;22.35;7.28;;;;;;;;;;4070805;35;20079;-85
2020/12/11 12:19:55;;;;;;;19.17;5.10;;;;;;;;;;4071594;35;20152;-85
2020/12/11 12:23:26;;;;;;;22.88;6.13;;;;;;;;;;4079590;27;20144;-86
2020/12/11 12:30:40;;;;;;;18.70;5.13;;;;;;;;;;4085875;27;20116;-84
2020/12/11 12:36:53;;;;;;;14.18;5.88;;;;;;;;;;4088804;27;20132;-85
2020/12/11 12:40:08;;;;;;;30.20;7.75;;;;;;;;;;4070748;27;20471;-85
2020/12/11 12:45:52;;;;;;;25.75;5.60;;;;;;;;;;4044811;28;20086;-85
2020/12/11 12:48:27;;;;;;;31.67;7.28;;;;;;;;;;4083936;27;20074;-86
2020/12/11 12:50:56;;;;;;;32.15;7.55;;;;;;;;;;4084424;28;20085;-87
2020/12/11 12:53:41;;;;;;;22.02;7.07;;;;;;;;;;4071465;27;20063;-90
2020/12/11 12:59:12;;;;;;;30.38;6.80;;;12.10;99.90;;;;;;4082015;27;20090;-86
2020/12/11 13:02:11;;;;;;;24.05;7.82;;;;;;;;;;4082278;27;20074;-85
2020/12/11 13:07:24;;;;;;;;;;;12.10;99.90;;;;;;4079389;27;20389;-87
2020/12/11 13:10:03;;;;;;;31.25;7.72;;;;;;;;;;4067227;35;19989;-86
2020/12/11 13:12:40;;;;;;;37.28;8.55;;;;;;;;;;4097298;27;20070;-91
2020/12/11 13:15:39;;;;;;;24.73;7.68;;;;;;;;;;4084066;28;20078;-92
2020/12/11 13:19:00;;;;;;;31.75;7.57;;;;;;;;;;4073709;27;20067;-92
2020/12/11 13:22:46;;;;;;;25.92;10.20;;;;;;;;;;4056807;35;20051;-92
2020/12/11 13:44:52;;;;;;;33.20;10.05;;;12.10;99.90;;;;;;4090429;27;20039;-91
2020/12/11 13:48:11;;;;;;;30.42;10.95;;;;;;;;;;4101189;35;20054;-91
2020/12/11 13:51:33;;;;;;;21.63;8.10;;;;;;;;;;4097746;35;20058;-91
2020/12/11 13:55:14;;;;;;;23.45;6.60;;;;;;;;;;4085564;35;20066;-90
2020/12/11 14:01:28;;;;;;;25.92;6.38;;;;;;;;;;4099672;27;20479;-91
2020/12/11 14:04:48;;;;;;;26.80;7.97;;;;;;;;;;4053629;28;20290;-91
2020/12/11 14:08:18;;;;;;;25.55;7.38;;;;;;;;;;4035111;28;20060;-92
2020/12/11 14:11:58;;;;;;;25.17;7.18;;;;;;;;;;4003696;35;20072;-88
2020/12/11 14:15:05;;;;;;;33.92;8.15;;;;;;;;;;4019782;28;20093;-87
2020/12/11 14:17:51;;;;;;;30.00;9.32;;;;;;;;;;4012412;35;20102;-88
2020/12/11 14:20:51;;;;;;;27.65;9.13;;;;;;;;;;4009010;28;20087;-89
2020/12/11 14:23:28;;;;;;;31.92;9.75;;;;;;;;;;4013287;35;20246;-89
2020/12/11 14:25:59;;;;;;;36.20;7.72;;;;;;;;;;4014114;28;20094;-87
2020/12/11 14:28:31;;;;;;;31.48;6.80;;;;;;;;;;4011877;35;20092;-88
2020/12/11 14:31:00;;;;;;;29.60;7.15;;;;;;;;;;3994592;28;20080;-88
2020/12/11 14:33:31;;;;;;;27.92;7.72;;;;;;;;;;4013772;28;20641;-88
2020/12/11 14:36:00;;;;;;;19.00;6.43;;;;;;;;;;3993746;28;20084;-89
2020/12/11 14:41:12;;;;;;;24.95;8.40;;;;;;;;;;4008042;28;20149;-88
2020/12/11 14:43:41;;;;;;;33.55;10.02;;;;;;;;;;4009628;35;20080;-87
2020/12/11 14:46:17;;;;;;;28.90;8.07;;;;;;;;;;4003487;35;20068;-87
2020/12/11 14:48:50;;;;;;;25.23;7.10;;;;;;;;;;4040483;28;20083;-88
2020/12/11 14:51:31;;;;;;;26.88;7.85;;;12.00;99.90;;;;;;4043897;28;20071;-88
2020/12/11 14:54:00;;;;;;;29.13;8.98;;;;;;;;;;4033070;35;20106;-88
2020/12/11 14:56:28;;;;;;;24.85;8.45;;;;;;;;;;4098016;27;20090;-88
2020/12/11 14:58:57;;;;;;;36.25;11.02;;;;;;;;;;4071095;27;20074;-87
2020/12/11 15:01:40;;;;;;;28.25;10.73;;;;;;;;;;4092369;28;20093;-85
2020/12/11 15:04:09;;;;;;;24.90;7.88;;;;;;;;;;4076211;27;20101;-88
2020/12/11 15:06:48;;;;;;;27.30;7.82;;;11.40;99.90;;;;;;4081708;35;20116;-86
2020/12/11 15:09:21;;;;;;;34.05;9.85;;;;;;;;;;4081332;27;20062;-85
2020/12/11 15:11:52;;;;;;;42.22;10.80;;;11.30;99.90;;;;;;4071976;28;20081;-86
2020/12/11 15:14:26;;;;;;;31.92;8.07;;;;;;;;;;4069323;35;20305;-87
2020/12/11 15:16:55;;;;;;;23.92;6.57;;;;;;;;;;4083313;35;20081;-87
2020/12/11 15:19:30;;;;;;;31.58;7.72;;;;;;;;;;4104380;27;20081;-89
2020/12/11 15:22:11;;;;;;;38.70;8.07;;;;;;;;;;4065978;27;20553;-87
2020/12/11 15:24:56;;;;;;;26.77;8.75;;;;;;;;;;4075349;27;20074;-87
2020/12/11 15:27:28;;;;;;;22.17;8.38;;;;;;;;;;4088222;27;20077;-87
2020/12/11 15:30:04;;;;;;;36.22;9.55;;;;;;;;;;4103372;27;20046;-87
2020/12/11 15:32:34;;;;;;;24.08;8.32;;;;;;;;;;4098225;27;20078;-89
2020/12/11 15:35:04;;;;;;;29.15;6.97;;;;;;;;;;4084126;35;20074;-87
2020/12/11 15:37:32;;;;;;;22.02;7.88;;;;;;;;;;4101977;27;20085;-87
2020/12/11 15:40:00;;;;;;;24.35;9.18;;;;;;;;;;4080936;27;20561;-88
2020/12/11 15:42:32;;;;;;;;;;;10.80;99.90;;;;;;4076462;27;20082;-88
2020/12/11 15:45:05;;;;;;;30.23;9.85;;;;;;;;;;4086493;35;20017;-86
2020/12/11 15:47:37;;;;;;;21.77;7.63;;;;;;;;;;4077107;27;20086;-85
2020/12/11 15:50:23;;;;;;;29.38;7.38;;;;;;;;;;4085450;27;20070;-88
2020/12/11 15:52:59;;;;;;;25.48;8.30;;;10.60;99.90;;;;;;4071329;35;20081;-88
2020/12/11 15:55:36;;;;;;;23.70;7.53;;;;;;;;;;4088762;35;20089;-86
2020/12/11 15:58:11;;;;;;;18.90;6.30;;;;;;;;;;4095294;35;20152;-85
2020/12/11 16:00:40;;;;;;;34.15;6.25;;;;;;;;;;4062650;27;20102;-86
2020/12/11 16:03:34;;;;;;;24.35;6.05;;;10.50;99.90;;;;;;4074650;35;20089;-89
2020/12/11 16:06:44;;;;;;;21.37;5.40;;;;;;;;;;4064975;28;20083;-87
2020/12/11 16:09:17;;;;;;;27.60;7.85;;;;;;;;;;4001904;28;20718;-87
2020/12/11 16:15:07;;;;;;;33.58;5.95;;;;;;;;;;4005388;28;20095;-89
2020/12/11 16:17:37;;;;;;;19.60;7.32;;;;;;;;;;4006402;28;20088;-88
2020/12/11 16:20:08;;;;;;;32.35;8.70;;;10.50;99.90;;;;;;4003896;36;20041;-88
2020/12/11 16:23:13;;;;;;;30.75;8.35;;;;;;;;;;4002377;28;20063;-88
2020/12/11 16:26:10;;;;;;;24.48;7.45;;;;;;;;;;3991129;28;20081;-87
2020/12/11 16:28:50;;;;;;;40.67;8.07;;;;;;;;;;3988998;36;20068;-87
2020/12/11 16:31:23;;;;;;;27.27;10.02;;;;;;;;;;4005237;28;20091;-88